Chittenango, NY

5:29 AM EDT on July 25, 2016 (GMT -0400)
APRSWXNET | | Change Station

Elev 475 ft 43.06 °N, 75.94 °W | Updated 67 days ago

Mostly Cloudy
Mostly Cloudy
74 °F
Feels Like 74 °F
N
4
Wind Variable Wind from SW
Gusts mph

Today
High -- | Low -- °F
--% Chance of Precip.
Yesterday
High -- | Low -- °F
Precip. -- in
Pressure 29.88 in
Visibility 10.0 miles
Clouds Scattered Clouds 10000 ft
Mostly Cloudy 25000 ft
Dew Point 65 °F
Humidity 74%
Rainfall in
Snow Depth Not available.
5:47 AM 8:32 PM
Waning Gibbous, 67% visible
METAR KSYR 250854Z 06003KT 10SM SCT100 BKN250 18/17 A2990 RMK AO2 SLP118 T01830167 55005
Pressure 29.88 in
Visibility 10.0 miles
Clouds Scattered Clouds 10000 ft
Mostly Cloudy 25000 ft
Dew Point 65 °F
Humidity 74%
Rainfall in
Snow Depth Not available.
5:47 AM 8:32 PM
Waning Gibbous, 67% visible
METAR KSYR 250854Z 06003KT 10SM SCT100 BKN250 18/17 A2990 RMK AO2 SLP118 T01830167 55005

10-Day Weather Forecast

Almanac

Astronomy

Jul. 25, 2016 Rise Set
Actual Time
Civil Twilight
Nautical Twilight
Astronomical Twilight
Moon
Length of Visible Light
Length of Day
Tomorrow will be .
, % of the Moon is Illuminated

Today's Extremes

State Highs State Lows

Community

WunderPhotos

Upload Photos

1,927,289 photos uploaded!

WunderBlog® & News

Nearby

Air Quality

  Air Quality AQ Index Pollutant
Not available.

Snow Depth

Station Depth Elevation

Earthquake Activity

City Distance Mag. Time & Date
Minimum magnitude displayed is 2.5.

Coastal Water Temperatures

Place Temperature

Stations

Nearby Weather Stations

Station Location Temp. Windchill Dew Point Humidity Wind Precip. Elev Updated Type
                   

Watches & Warnings

There are currently no watches in effect.